Time;durP1;ratioP1;P1;durP2;ratioP2;P2;SDS_P1;SDS_P2;PMS_P1;PMS_P2;Temp;Humidity;BMP_temperature;BMP_pressure;BME280_temperature;BME280_humidity;BME280_pressure;Samples;Min_cycle;Max_cycle;Signal;HPM_P1;HPM_P2
2022/11/12 00:01:14;;;;;;;20.98;12.52;;;6.80;99.90;;;;;;4974734;28;20145;-66
2022/11/12 00:03:40;;;;;;;16.88;12.13;;;6.70;99.90;;;;;;4992017;28;20634;-66
2022/11/12 00:06:07;;;;;;;19.15;13.57;;;6.70;99.90;;;;;;4992017;28;20104;-66
2022/11/12 00:08:33;;;;;;;20.25;13.70;;;6.60;99.90;;;;;;4992040;28;20053;-66
2022/11/12 00:11:00;;;;;;;23.77;14.90;;;6.60;99.90;;;;;;4958566;28;20088;-66
2022/11/12 00:13:26;;;;;;;23.73;13.60;;;6.60;99.90;;;;;;4991941;28;20073;-66
2022/11/12 00:15:53;;;;;;;18.65;13.27;;;6.60;99.90;;;;;;4958651;28;20045;-66
2022/11/12 00:18:20;;;;;;;23.45;14.10;;;6.60;99.90;;;;;;4992001;28;20117;-67
2022/11/12 00:20:47;;;;;;;23.70;14.40;;;6.60;99.90;;;;;;4958684;28;20073;-67
2022/11/12 00:23:14;;;;;;;19.98;13.70;;;6.60;99.90;;;;;;4974666;28;20053;-67
2022/11/12 00:25:40;;;;;;;21.63;13.82;;;6.60;99.90;;;;;;4972598;28;20045;-67
2022/11/12 00:28:09;;;;;;;21.95;13.18;;;6.60;99.90;;;;;;4974627;28;20054;-67
2022/11/12 00:30:39;;;;;;;23.75;14.25;;;6.50;99.90;;;;;;4974432;28;20065;-67
2022/11/12 00:33:06;;;;;;;32.08;15.90;;;6.50;99.90;;;;;;4974552;28;20049;-67
2022/11/12 00:35:34;;;;;;;21.83;13.43;;;6.40;99.90;;;;;;4974559;28;20053;-67
2022/11/12 00:38:01;;;;;;;19.85;13.13;;;6.30;99.90;;;;;;4974520;28;20034;-66
2022/11/12 00:40:28;;;;;;;19.05;12.93;;;6.30;99.90;;;;;;4974472;28;20042;-66
2022/11/12 00:42:56;;;;;;;15.73;12.05;;;6.20;99.90;;;;;;4974485;28;20046;-66
2022/11/12 00:45:23;;;;;;;22.35;14.32;;;6.20;99.90;;;;;;4990469;28;20115;-66
2022/11/12 00:47:54;;;;;;;25.90;14.93;;;6.10;99.90;;;;;;4974471;28;20042;-66
2022/11/12 00:50:21;;;;;;;23.52;15.50;;;6.10;99.90;;;;;;4991453;28;20042;-66
2022/11/12 00:52:50;;;;;;;24.08;15.88;;;6.10;99.90;;;;;;4991593;28;20045;-66
2022/11/12 00:55:16;;;;;;;20.48;14.25;;;6.10;99.90;;;;;;4972403;28;20038;-66
2022/11/12 00:57:43;;;;;;;20.33;11.80;;;6.10;99.90;;;;;;4960721;28;20050;-66
2022/11/12 01:00:16;;;;;;;24.05;14.50;;;6.00;99.90;;;;;;4972162;28;20085;-67
2022/11/12 01:02:43;;;;;;;23.20;14.73;;;6.00;99.90;;;;;;4974925;28;20118;-67
2022/11/12 01:05:09;;;;;;;24.77;16.02;;;5.90;99.90;;;;;;4975867;28;20528;-67
2022/11/12 01:07:36;;;;;;;25.08;15.32;;;5.90;99.90;;;;;;4958719;28;20385;-67
2022/11/12 01:10:03;;;;;;;23.58;15.75;;;5.90;99.90;;;;;;4958592;28;20046;-67
2022/11/12 01:12:33;;;;;;;26.35;15.82;;;5.90;99.90;;;;;;4975712;28;20505;-67
2022/11/12 01:15:00;;;;;;;20.90;15.33;;;5.90;99.90;;;;;;4958648;28;20497;-67
2022/11/12 01:17:27;;;;;;;21.73;13.63;;;5.90;99.90;;;;;;4958476;28;20474;-67
2022/11/12 01:19:55;;;;;;;28.13;16.45;;;5.90;99.90;;;;;;4975410;28;20117;-67
2022/11/12 01:22:22;;;;;;;30.63;18.95;;;5.80;99.90;;;;;;4975482;28;20046;-67
2022/11/12 01:24:48;;;;;;;28.00;15.95;;;5.70;99.90;;;;;;4975380;28;20035;-67
2022/11/12 01:27:15;;;;;;;21.75;13.75;;;5.70;99.90;;;;;;4973281;28;20039;-67
2022/11/12 01:29:42;;;;;;;26.52;16.17;;;5.60;99.90;;;;;;4975083;28;20038;-67
2022/11/12 01:32:09;;;;;;;27.30;17.10;;;5.50;99.90;;;;;;4975265;28;20043;-67
2022/11/12 01:34:36;;;;;;;33.28;19.25;;;5.50;99.90;;;;;;4975390;28;20101;-67
2022/11/12 01:37:02;;;;;;;34.08;21.40;;;5.50;99.90;;;;;;4975049;28;20471;-67
2022/11/12 01:39:29;;;;;;;32.90;20.15;;;5.50;99.90;;;;;;4958053;28;20048;-66
2022/11/12 01:41:56;;;;;;;39.92;21.98;;;5.60;99.90;;;;;;4975112;28;20046;-66
2022/11/12 01:44:29;;;;;;;39.08;22.23;;;5.60;99.90;;;;;;4957893;28;20061;-66
2022/11/12 01:47:24;;;;;;;38.00;21.60;;;5.60;99.90;;;;;;4957934;28;20050;-66
2022/11/12 01:50:07;;;;;;;38.83;20.42;;;5.60;99.90;;;;;;4974872;28;20051;-67
2022/11/12 01:52:49;;;;;;;35.70;20.80;;;5.60;99.90;;;;;;4957624;28;20081;-67
2022/11/12 01:55:22;;;;;;;40.53;21.55;;;5.70;99.90;;;;;;4972719;28;20054;-67
2022/11/12 01:58:03;;;;;;;34.00;20.27;;;5.70;99.90;;;;;;4941873;28;20050;-67
2022/11/12 02:00:29;;;;;;;;;;;5.60;99.90;;;;;;4958009;28;20084;-67
2022/11/12 02:02:59;;;;;;;30.45;18.95;;;5.60;99.90;;;;;;4957601;28;20375;-67
2022/11/12 02:05:29;;;;;;;21.38;14.38;;;5.50;99.90;;;;;;4957542;28;20366;-67
2022/11/12 02:07:57;;;;;;;32.95;18.90;;;5.50;99.90;;;;;;4957538;28;20065;-67
2022/11/12 02:10:25;;;;;;;32.47;20.50;;;5.40;99.90;;;;;;4974518;28;20043;-67
2022/11/12 02:15:40;;;;;;;31.92;19.25;;;5.40;99.90;;;;;;4974423;28;20487;-67
2022/11/12 02:18:07;;;;;;;32.95;20.92;;;5.30;99.90;;;;;;4941385;28;20042;-67
2022/11/12 02:20:36;;;;;;;37.83;22.40;;;5.30;99.90;;;;;;4956934;28;20050;-67
2022/11/12 02:23:03;;;;;;;37.83;21.70;;;5.40;99.90;;;;;;4957226;28;20047;-67
2022/11/12 02:25:30;;;;;;;43.33;25.30;;;5.40;99.90;;;;;;4955070;28;20038;-67
2022/11/12 02:27:59;;;;;;;50.30;26.67;;;5.40;99.90;;;;;;4957190;28;20038;-67
2022/11/12 02:30:42;;;;;;;47.38;26.80;;;5.50;99.90;;;;;;4956941;28;20146;-67
2022/11/12 02:33:08;;;;;;;39.30;23.75;;;5.50;99.90;;;;;;4941269;28;20047;-67
2022/11/12 02:35:35;;;;;;;47.55;25.55;;;5.50;99.90;;;;;;4957126;28;20042;-67
2022/11/12 02:38:03;;;;;;;71.90;25.33;;;5.50;99.90;;;;;;4974112;28;20047;-67
2022/11/12 02:40:29;;;;;;;41.22;22.20;;;5.50;99.90;;;;;;4973960;28;20570;-68
2022/11/12 02:42:56;;;;;;;41.25;21.17;;;5.40;99.90;;;;;;4956918;28;20456;-68
2022/11/12 02:45:23;;;;;;;40.85;21.73;;;5.30;99.90;;;;;;4973973;28;20042;-67
2022/11/12 02:47:49;;;;;;;40.28;22.80;;;5.20;99.90;;;;;;4956913;28;20074;-68
2022/11/12 02:50:16;;;;;;;34.17;22.00;;;5.20;99.90;;;;;;4973726;28;20043;-68
2022/11/12 02:52:43;;;;;;;32.72;21.17;;;5.10;99.90;;;;;;4973753;28;20050;-68
2022/11/12 02:55:11;;;;;;;45.70;25.00;;;5.10;99.90;;;;;;4971572;28;20065;-67
2022/11/12 02:57:39;;;;;;;45.13;26.05;;;5.10;99.90;;;;;;4956606;28;20049;-67
2022/11/12 03:00:11;;;;;;;47.90;28.25;;;5.10;99.90;;;;;;4973733;28;20034;-67
2022/11/12 03:02:57;;;;;;;68.43;33.88;;;5.20;99.90;;;;;;4952881;29;20058;-67
2022/11/12 03:05:26;;;;;;;55.20;29.25;;;5.30;99.90;;;;;;4953266;29;20043;-67
2022/11/12 03:07:59;;;;;;;41.10;24.67;;;5.20;99.90;;;;;;4954149;28;20559;-68
2022/11/12 03:10:27;;;;;;;62.05;31.13;;;5.30;99.90;;;;;;4954209;28;20572;-67
2022/11/12 03:13:00;;;;;;;41.30;25.30;;;5.30;99.90;;;;;;4953144;29;20122;-67
2022/11/12 03:15:28;;;;;;;55.05;28.35;;;5.30;99.90;;;;;;4954221;28;20035;-68
2022/11/12 03:17:57;;;;;;;45.20;28.02;;;5.30;99.90;;;;;;4937125;29;20050;-67
2022/11/12 03:20:25;;;;;;;43.10;25.55;;;5.30;99.90;;;;;;4952963;29;20394;-67
2022/11/12 03:23:05;;;;;;;45.53;26.50;;;5.30;99.90;;;;;;4953002;29;20049;-67
2022/11/12 03:25:32;;;;;;;39.22;24.02;;;5.30;99.90;;;;;;4950411;28;20050;-67
2022/11/12 03:28:01;;;;;;;65.07;29.13;;;5.20;99.90;;;;;;4952841;29;20050;-66
2022/11/12 03:30:31;;;;;;;77.70;30.27;;;5.20;99.90;;;;;;4952767;29;20114;-67
2022/11/12 03:32:59;;;;;;;230.38;41.20;;;5.20;99.90;;;;;;4953742;29;20042;-67
2022/11/12 03:35:27;;;;;;;95.93;28.38;;;5.10;99.90;;;;;;4952818;29;20043;-67
2022/11/12 03:37:53;;;;;;;151.20;44.65;;;5.10;99.90;;;;;;4953655;29;20039;-67
2022/11/12 03:40:20;;;;;;;61.85;28.20;;;5.10;99.90;;;;;;4952620;29;20054;-67
2022/11/12 03:42:49;;;;;;;33.25;19.90;;;5.00;99.90;;;;;;4953634;28;20477;-67
2022/11/12 03:45:16;;;;;;;43.85;22.33;;;4.90;99.90;;;;;;4952594;29;20745;-67
2022/11/12 03:47:48;;;;;;;52.55;24.00;;;4.90;99.90;;;;;;4952549;29;20050;-67
2022/11/12 03:50:17;;;;;;;33.75;18.48;;;4.80;99.90;;;;;;4953433;29;20039;-67
2022/11/12 03:52:45;;;;;;;396.45;49.08;;;4.80;99.90;;;;;;4936484;29;20042;-67
2022/11/12 03:55:14;;;;;;;556.28;73.68;;;4.80;99.90;;;;;;4951284;29;20031;-67
2022/11/12 03:57:41;;;;;;;447.65;75.57;;;4.70;99.90;;;;;;4968331;28;20513;-67
2022/11/12 04:00:09;;;;;;;62.42;26.80;;;4.70;99.90;;;;;;4952355;29;20405;-68
2022/11/12 04:02:36;;;;;;;26.83;15.77;;;4.60;99.90;;;;;;4951947;29;20136;-67
2022/11/12 04:10:48;;;;;;;410.58;58.63;;;4.40;99.90;;;;;;4952068;29;20074;-67
2022/11/12 04:13:27;;;;;;;259.88;36.13;;;4.30;99.90;;;;;;4953229;28;20042;-67
2022/11/12 04:21:50;;;;;;;27.85;15.25;;;4.20;99.90;;;;;;4957137;28;20070;-68
2022/11/12 04:27:06;;;;;;;51.63;22.80;;;4.10;99.90;;;;;;4969133;28;20125;-68
2022/11/12 04:32:17;;;;;;;283.83;37.58;;;4.20;99.90;;;;;;4972407;28;20051;-68
2022/11/12 04:34:44;;;;;;;269.42;42.45;;;4.20;99.90;;;;;;4971014;28;20492;-67
2022/11/12 04:37:12;;;;;;;254.95;35.72;;;4.30;99.90;;;;;;4973778;28;20055;-68
2022/11/12 04:39:38;;;;;;;199.85;35.92;;;4.30;99.90;;;;;;4975266;28;20097;-68
2022/11/12 04:44:58;;;;;;;28.33;18.63;;;4.30;99.90;;;;;;4975184;28;20054;-68
2022/11/12 04:47:34;;;;;;;36.80;21.52;;;4.40;99.90;;;;;;4975178;28;20053;-68
2022/11/12 04:50:08;;;;;;;40.22;23.77;;;4.40;99.90;;;;;;4975877;28;20047;-68
2022/11/12 04:52:34;;;;;;;36.10;22.17;;;4.50;99.90;;;;;;4975045;28;20042;-68
2022/11/12 04:55:01;;;;;;;50.28;29.27;;;4.60;99.90;;;;;;4974374;28;20050;-67
2022/11/12 04:57:29;;;;;;;51.20;27.52;;;4.70;99.90;;;;;;4969553;28;20659;-68
2022/11/12 04:59:56;;;;;;;59.08;32.40;;;4.80;99.90;;;;;;4956623;29;20051;-68
2022/11/12 05:02:23;;;;;;;54.95;31.63;;;4.90;99.90;;;;;;4955103;29;20055;-68
2022/11/12 05:04:49;;;;;;;53.10;34.10;;;5.10;99.90;;;;;;4955387;29;20051;-68
2022/11/12 05:07:16;;;;;;;67.47;34.42;;;5.20;99.90;;;;;;4939539;29;20047;-68
2022/11/12 05:09:43;;;;;;;58.97;35.03;;;5.30;99.90;;;;;;4955331;29;20182;-68
2022/11/12 05:12:19;;;;;;;70.90;36.92;;;5.50;99.90;;;;;;4956398;29;20621;-68
2022/11/12 05:14:45;;;;;;;56.60;33.70;;;5.60;99.90;;;;;;4956289;28;20109;-68
2022/11/12 05:17:12;;;;;;;69.07;37.00;;;5.60;99.90;;;;;;4955112;29;20090;-68
2022/11/12 05:19:38;;;;;;;64.43;34.92;;;5.70;99.90;;;;;;4955203;29;20035;-68
2022/11/12 05:22:05;;;;;;;70.13;34.38;;;5.70;99.90;;;;;;4955232;29;20046;-68
2022/11/12 05:24:34;;;;;;;60.75;32.10;;;5.70;99.90;;;;;;4955160;29;20050;-68
2022/11/12 05:27:01;;;;;;;55.45;32.08;;;5.80;99.90;;;;;;4952964;29;20506;-68
2022/11/12 05:29:28;;;;;;;59.97;31.70;;;5.80;99.90;;;;;;4956062;29;20110;-68
2022/11/12 05:31:55;;;;;;;56.28;32.15;;;5.80;99.90;;;;;;4955928;28;20050;-67
2022/11/12 05:34:22;;;;;;;56.22;30.83;;;5.80;99.90;;;;;;4956005;28;20070;-68
2022/11/12 05:36:49;;;;;;;56.00;33.60;;;5.80;99.90;;;;;;4955938;28;20043;-67
2022/11/12 05:39:15;;;;;;;56.92;30.80;;;5.90;99.90;;;;;;4939023;29;20096;-68
2022/11/12 05:41:42;;;;;;;56.67;32.78;;;5.90;99.90;;;;;;4954829;29;20051;-67
2022/11/12 05:44:09;;;;;;;63.22;34.25;;;5.90;99.90;;;;;;4954747;29;20043;-67
2022/11/12 05:46:35;;;;;;;57.58;33.45;;;6.00;99.90;;;;;;4955830;28;20397;-67
2022/11/12 05:49:02;;;;;;;56.97;32.85;;;6.00;99.90;;;;;;4954598;28;20050;-68
2022/11/12 05:51:29;;;;;;;54.50;32.75;;;6.00;99.90;;;;;;4970444;28;20082;-68
2022/11/12 05:53:55;;;;;;;67.15;34.25;;;6.00;99.90;;;;;;4954494;29;20099;-68
2022/11/12 05:56:22;;;;;;;80.80;36.35;;;6.00;99.90;;;;;;4953458;28;20559;-68
2022/11/12 05:58:49;;;;;;;108.85;43.15;;;6.10;99.90;;;;;;4955544;28;20385;-68
2022/11/12 06:01:15;;;;;;;96.53;41.20;;;6.10;99.90;;;;;;4961445;28;20058;-68
2022/11/12 06:03:42;;;;;;;134.45;45.95;;;6.10;99.90;;;;;;4957665;28;20065;-68
2022/11/12 06:06:08;;;;;;;145.65;46.17;;;6.20;99.90;;;;;;4957440;28;20050;-68
2022/11/12 06:08:35;;;;;;;179.23;51.35;;;6.20;99.90;;;;;;4974586;28;20057;-67
2022/11/12 06:11:02;;;;;;;225.93;56.30;;;6.30;99.90;;;;;;4957225;28;20508;-67
2022/11/12 06:13:29;;;;;;;273.27;62.08;;;6.30;99.90;;;;;;4957331;28;20369;-68
2022/11/12 06:15:55;;;;;;;355.70;71.70;;;6.40;99.90;;;;;;4957478;28;20038;-67
2022/11/12 06:18:23;;;;;;;259.00;62.97;;;6.40;99.90;;;;;;4974449;28;20039;-68
2022/11/12 06:23:36;;;;;;;329.35;71.65;;;6.50;99.90;;;;;;4974595;28;20047;-67
2022/11/12 06:26:04;;;;;;;326.63;72.60;;;6.60;99.90;;;;;;4939224;28;20045;-66
2022/11/12 06:28:31;;;;;;;417.48;88.97;;;6.60;99.90;;;;;;4941341;28;20047;-67
2022/11/12 06:30:57;;;;;;;514.05;102.05;;;6.60;99.90;;;;;;4974242;28;20086;-67
2022/11/12 06:33:24;;;;;;;329.92;70.60;;;6.60;99.90;;;;;;4974291;28;20456;-67
2022/11/12 06:36:03;;;;;;;249.27;57.88;;;6.70;99.90;;;;;;4957149;28;20057;-67
2022/11/12 06:38:31;;;;;;;218.32;57.90;;;6.70;99.90;;;;;;4974200;28;20074;-66
2022/11/12 06:40:57;;;;;;;441.77;86.25;;;6.70;99.90;;;;;;4974065;28;20046;-68
2022/11/12 06:43:25;;;;;;;309.27;63.67;;;6.80;99.90;;;;;;4974095;28;20043;-68
2022/11/12 06:45:51;;;;;;;185.45;50.63;;;6.80;99.90;;;;;;4941050;28;20050;-68
2022/11/12 06:48:18;;;;;;;474.42;96.05;;;6.90;99.90;;;;;;4973981;28;20477;-68
2022/11/12 06:50:45;;;;;;;437.20;87.80;;;6.90;99.90;;;;;;4956484;28;20051;-67
2022/11/12 06:53:11;;;;;;;231.70;58.50;;;6.90;99.90;;;;;;4956665;28;20090;-67
2022/11/12 06:55:38;;;;;;;295.40;70.18;;;6.90;99.90;;;;;;4971682;28;20070;-68
2022/11/12 06:58:05;;;;;;;327.30;75.50;;;7.00;99.90;;;;;;4956515;28;20389;-68
2022/11/12 07:00:31;;;;;;;242.70;56.55;;;7.00;99.90;;;;;;4955969;28;20484;-68
2022/11/12 07:02:58;;;;;;;311.00;63.97;;;7.00;99.90;;;;;;4973678;28;20145;-68
2022/11/12 07:05:25;;;;;;;412.55;87.00;;;7.10;99.90;;;;;;4973571;28;20092;-68
2022/11/12 07:07:51;;;;;;;331.10;73.10;;;7.10;99.90;;;;;;4973705;28;20046;-67
2022/11/12 07:10:18;;;;;;;446.35;91.03;;;7.10;99.90;;;;;;4973508;28;20147;-67
2022/11/12 07:12:44;;;;;;;505.45;97.10;;;7.20;99.90;;;;;;4956372;28;20499;-68
2022/11/12 07:15:11;;;;;;;459.55;87.22;;;7.20;99.90;;;;;;4956377;28;20054;-68
2022/11/12 07:17:38;;;;;;;379.38;75.20;;;7.30;99.90;;;;;;4973410;28;20066;-68
2022/11/12 07:20:05;;;;;;;186.82;52.17;;;7.30;99.90;;;;;;4973414;28;20038;-68
2022/11/12 07:22:33;;;;;;;417.48;85.63;;;7.40;99.90;;;;;;4955999;28;20046;-68
2022/11/12 07:25:00;;;;;;;247.63;64.28;;;7.40;99.90;;;;;;4940221;28;20047;-68
2022/11/12 07:27:29;;;;;;;338.50;75.32;;;7.40;99.90;;;;;;4953918;28;20038;-68
2022/11/12 07:29:56;;;;;;;502.10;91.00;;;7.50;99.90;;;;;;4956006;28;20058;-68
2022/11/12 07:32:23;;;;;;;533.22;101.30;;;7.50;99.90;;;;;;4973192;28;20050;-68
2022/11/12 07:34:49;;;;;;;291.58;60.83;;;7.50;99.90;;;;;;4973109;28;20426;-68
2022/11/12 07:37:16;;;;;;;236.43;58.45;;;7.60;99.90;;;;;;4955984;28;20042;-68
2022/11/12 07:39:42;;;;;;;254.40;61.10;;;7.60;99.90;;;;;;4940105;28;20428;-67
2022/11/12 07:42:09;;;;;;;379.50;84.80;;;7.60;99.90;;;;;;4955835;28;20039;-67
2022/11/12 07:44:35;;;;;;;299.38;68.22;;;7.60;99.90;;;;;;4973025;28;20499;-68
2022/11/12 07:47:02;;;;;;;282.20;66.78;;;7.70;99.90;;;;;;4955989;28;20049;-68
2022/11/12 07:49:29;;;;;;;364.65;78.22;;;7.70;99.90;;;;;;4972820;28;20046;-68
2022/11/12 07:51:55;;;;;;;466.13;87.57;;;7.80;99.90;;;;;;4955673;28;20130;-68
2022/11/12 07:54:22;;;;;;;465.67;86.55;;;7.90;99.90;;;;;;4978333;28;20070;-68
2022/11/12 07:56:48;;;;;;;374.25;71.90;;;7.90;99.90;;;;;;4980761;28;20101;-69
2022/11/12 07:59:15;;;;;;;382.60;72.72;;;8.00;99.90;;;;;;4964854;28;20046;-68
2022/11/12 08:01:41;;;;;;;224.27;53.20;;;8.00;99.90;;;;;;4971115;28;20061;-69
2022/11/12 08:04:10;;;;;;;256.00;55.88;;;8.00;99.90;;;;;;4955339;28;20047;-69
2022/11/12 08:06:37;;;;;;;321.52;62.03;;;7.90;99.90;;;;;;4952129;29;20134;-68
2022/11/12 08:09:06;;;;;;;286.60;55.10;;;7.90;99.90;;;;;;4952301;29;20155;-69
2022/11/12 08:11:38;;;;;;;299.42;57.35;;;7.80;99.90;;;;;;4952528;28;20079;-69
2022/11/12 08:14:04;;;;;;;247.50;50.35;;;7.70;99.90;;;;;;4953257;29;20039;-69
2022/11/12 08:16:31;;;;;;;314.05;58.38;;;7.70;99.90;;;;;;4971086;28;20078;-68
2022/11/12 08:18:58;;;;;;;279.40;54.97;;;7.70;99.90;;;;;;4972544;28;20481;-68
2022/11/12 08:21:24;;;;;;;245.80;51.78;;;7.60;99.90;;;;;;4971807;28;20122;-68
2022/11/12 08:23:51;;;;;;;300.73;56.33;;;7.60;99.90;;;;;;4971553;28;20051;-68
2022/11/12 08:26:19;;;;;;;342.73;60.95;;;7.70;99.90;;;;;;4953214;28;20077;-68
2022/11/12 08:28:46;;;;;;;259.40;53.40;;;7.70;99.90;;;;;;4971392;28;20046;-68
2022/11/12 08:31:19;;;;;;;343.25;61.42;;;7.70;99.90;;;;;;4966078;28;20436;-68
2022/11/12 08:33:46;;;;;;;224.65;47.83;;;7.70;99.90;;;;;;4936155;29;20043;-68
2022/11/12 08:36:14;;;;;;;198.95;46.63;;;7.70;99.90;;;;;;4952056;29;20082;-68
2022/11/12 08:38:42;;;;;;;379.92;70.53;;;7.70;99.90;;;;;;4951931;29;20484;-68
2022/11/12 08:41:10;;;;;;;248.82;51.20;;;7.80;99.90;;;;;;4952874;29;20042;-68
2022/11/12 08:43:39;;;;;;;251.02;58.15;;;7.80;99.90;;;;;;4952562;29;20102;-68
2022/11/12 08:46:06;;;;;;;345.55;65.55;;;7.80;99.90;;;;;;4951963;29;20134;-68
2022/11/12 08:48:34;;;;;;;292.27;56.35;;;7.80;99.90;;;;;;4967624;28;20046;-68
2022/11/12 08:51:04;;;;;;;398.33;70.80;;;7.90;99.90;;;;;;4954424;28;20098;-68
2022/11/12 08:53:31;;;;;;;280.83;54.20;;;7.90;99.90;;;;;;4971096;28;20117;-68
2022/11/12 08:55:58;;;;;;;312.17;55.50;;;7.90;99.90;;;;;;4969821;28;20035;-69
2022/11/12 08:58:26;;;;;;;317.45;60.58;;;7.90;99.90;;;;;;4966683;28;20452;-68
2022/11/12 09:00:54;;;;;;;429.00;76.28;;;7.90;99.90;;;;;;4972963;28;20102;-68
2022/11/12 09:03:23;;;;;;;299.77;57.13;;;7.90;99.90;;;;;;4956494;28;20234;-68
2022/11/12 09:05:50;;;;;;;338.27;66.03;;;7.90;99.90;;;;;;4954969;28;20042;-68
2022/11/12 09:08:20;;;;;;;368.85;65.72;;;7.90;99.90;;;;;;4949738;28;20106;-68
2022/11/12 09:10:47;;;;;;;226.68;52.17;;;7.90;99.90;;;;;;4957186;28;20548;-69
2022/11/12 09:13:16;;;;;;;400.40;71.05;;;8.00;99.90;;;;;;4970696;28;20118;-68
2022/11/12 09:15:42;;;;;;;255.40;52.28;;;8.00;99.90;;;;;;4957809;28;20066;-68
2022/11/12 09:18:15;;;;;;;354.60;61.65;;;8.10;99.90;;;;;;4939779;28;20125;-68
2022/11/12 09:20:41;;;;;;;324.05;60.80;;;8.10;99.90;;;;;;4972744;28;20038;-68
2022/11/12 09:23:13;;;;;;;278.25;53.70;;;8.10;99.90;;;;;;4953001;28;20579;-68
2022/11/12 09:25:43;;;;;;;472.25;81.13;;;8.10;99.90;;;;;;4952725;28;20043;-68
2022/11/12 09:28:18;;;;;;;326.42;60.38;;;8.10;99.90;;;;;;4941823;28;20043;-68
2022/11/12 09:30:49;;;;;;;371.88;67.57;;;8.10;99.90;;;;;;4955387;28;20508;-68
2022/11/12 09:33:22;;;;;;;320.52;62.22;;;8.20;99.90;;;;;;4956685;28;20035;-68
2022/11/12 09:35:52;;;;;;;278.05;57.20;;;8.20;99.90;;;;;;4968983;28;20042;-70
2022/11/12 09:38:21;;;;;;;423.55;77.05;;;8.10;99.90;;;;;;4975166;28;20126;-69
2022/11/12 09:40:52;;;;;;;384.80;69.22;;;8.10;99.90;;;;;;4959721;28;20055;-68
2022/11/12 09:43:31;;;;;;;288.77;57.58;;;8.10;99.90;;;;;;4955306;28;20043;-69
2022/11/12 09:46:25;;;;;;;197.60;46.45;;;8.10;99.90;;;;;;4978200;28;20093;-69
2022/11/12 09:49:01;;;;;;;183.50;47.97;;;8.00;99.90;;;;;;4945889;28;20046;-69
2022/11/12 09:51:32;;;;;;;146.77;44.47;;;8.00;99.90;;;;;;4956582;28;20043;-69
2022/11/12 09:54:21;;;;;;;181.90;44.95;;;8.00;99.90;;;;;;4955290;28;20580;-68
2022/11/12 09:56:49;;;;;;;199.95;45.88;;;8.00;99.90;;;;;;4970355;28;20456;-68
2022/11/12 09:59:16;;;;;;;131.88;40.47;;;8.00;99.90;;;;;;4958251;28;20041;-68
2022/11/12 10:01:52;;;;;;;217.65;55.63;;;8.00;99.90;;;;;;4953241;28;20063;-69
2022/11/12 10:04:28;;;;;;;117.55;40.20;;;8.00;99.90;;;;;;4952965;28;20509;-68
2022/11/12 10:07:07;;;;;;;145.43;42.92;;;8.00;99.90;;;;;;4951962;28;20079;-69
2022/11/12 10:09:49;;;;;;;192.25;51.55;;;8.00;99.90;;;;;;4954199;28;20043;-68
2022/11/12 10:12:34;;;;;;;191.82;54.58;;;8.00;99.90;;;;;;4954895;28;20118;-68
2022/11/12 10:18:37;;;;;;;81.82;41.08;;;8.10;99.90;;;;;;4955589;28;20047;-68
2022/11/12 10:21:24;;;;;;;105.53;40.35;;;8.10;99.90;;;;;;4952891;28;20043;-68
2022/11/12 10:23:52;;;;;;;109.18;40.55;;;8.20;99.90;;;;;;4955440;28;20047;-68
2022/11/12 10:26:21;;;;;;;98.45;41.03;;;8.20;99.90;;;;;;4954234;28;20035;-68
2022/11/12 10:29:25;;;;;;;161.68;45.97;;;8.30;99.90;;;;;;4934674;28;20097;-68
2022/11/12 10:31:51;;;;;;;70.03;36.70;;;8.30;99.90;;;;;;4949997;28;20048;-68
2022/11/12 10:34:20;;;;;;;80.47;38.17;;;8.30;99.90;;;;;;4953973;28;20039;-69
2022/11/12 10:36:59;;;;;;;70.78;37.75;;;8.40;99.90;;;;;;4951456;28;20663;-68
2022/11/12 10:39:43;;;;;;;117.05;46.08;;;8.40;99.90;;;;;;4956879;28;20041;-68
2022/11/12 10:42:15;;;;;;;66.85;33.97;;;8.40;99.90;;;;;;4937110;28;20094;-68
2022/11/12 10:44:42;;;;;;;63.13;34.25;;;8.50;99.90;;;;;;4950506;28;20043;-68
2022/11/12 10:47:41;;;;;;;71.15;36.08;;;8.50;99.90;;;;;;4950324;28;20166;-67
2022/11/12 10:50:10;;;;;;;63.80;34.47;;;8.60;99.90;;;;;;4952235;28;20106;-68
2022/11/12 10:52:37;;;;;;;65.28;36.83;;;8.70;99.90;;;;;;4952993;28;20043;-68
2022/11/12 10:55:28;;;;;;;63.45;35.40;;;8.70;99.90;;;;;;4953371;28;20113;-68
2022/11/12 10:58:20;;;;;;;58.67;34.92;;;8.80;99.90;;;;;;4936529;28;20031;-68
2022/11/12 11:00:56;;;;;;;55.90;33.35;;;8.90;99.90;;;;;;4953703;28;20057;-68
2022/11/12 11:03:34;;;;;;;47.92;31.38;;;9.00;99.90;;;;;;4957384;28;20105;-68
2022/11/12 11:06:09;;;;;;;45.72;29.20;;;9.20;99.90;;;;;;4973955;28;20061;-68
2022/11/12 11:08:38;;;;;;;34.40;23.98;;;9.50;99.90;;;;;;4942389;28;20193;-68
2022/11/12 11:11:28;;;;;;;29.60;22.57;;;10.00;99.90;;;;;;4953898;28;20070;-68
2022/11/12 11:14:17;;;;;;;30.52;23.15;;;10.60;99.90;;;;;;4942068;28;20046;-68
2022/11/12 11:16:55;;;;;;;29.75;22.75;;;10.80;99.90;;;;;;4955697;28;20398;-68
2022/11/12 11:19:32;;;;;;;26.27;21.42;;;11.20;99.90;;;;;;4975281;28;20043;-68
2022/11/12 11:22:16;;;;;;;30.67;23.13;;;11.40;99.90;;;;;;4954114;28;20096;-68
2022/11/12 11:25:04;;;;;;;30.08;21.40;;;11.50;99.90;;;;;;4955650;28;20041;-68
2022/11/12 11:27:37;;;;;;;27.88;20.60;;;11.60;99.90;;;;;;4938273;28;20054;-68
2022/11/12 11:30:11;;;;;;;26.05;20.05;;;11.80;99.90;;;;;;4940414;28;20043;-68
2022/11/12 11:33:08;;;;;;;26.10;18.77;;;11.90;99.90;;;;;;4953723;28;20401;-68
2022/11/12 11:36:00;;;;;;;26.30;18.70;;;12.40;99.90;;;;;;4939658;28;20041;-68
2022/11/12 11:38:33;;;;;;;24.35;17.85;;;13.20;99.90;;;;;;4973786;28;20036;-67
2022/11/12 11:41:35;;;;;;;23.70;18.95;;;13.70;99.90;;;;;;4972659;28;20043;-68
2022/11/12 11:44:13;;;;;;;22.77;16.70;;;13.70;99.90;;;;;;4906281;28;20136;-67
2022/11/12 11:46:51;;;;;;;20.05;16.85;;;14.20;99.90;;;;;;4952595;28;20038;-68
2022/11/12 11:49:32;;;;;;;21.10;16.80;;;14.60;99.90;;;;;;4954026;28;20125;-68
2022/11/12 11:52:09;;;;;;;20.50;16.40;;;15.00;99.90;;;;;;4975536;28;20038;-68
2022/11/12 11:54:54;;;;;;;22.90;16.73;;;15.40;99.90;;;;;;4974617;28;20031;-68
2022/11/12 11:57:31;;;;;;;17.60;14.48;;;15.20;99.90;;;;;;4950609;28;20031;-68
2022/11/12 12:00:19;;;;;;;20.63;16.08;;;14.60;99.90;;;;;;4939671;28;20174;-68
2022/11/12 12:03:25;;;;;;;17.17;14.82;;;14.50;99.90;;;;;;4953705;28;20047;-68
2022/11/12 12:06:03;;;;;;;18.35;14.70;;;14.80;99.90;;;;;;4954066;28;20035;-68
2022/11/12 12:08:30;;;;;;;22.25;15.98;;;14.90;99.90;;;;;;4953467;28;20090;-65
2022/11/12 12:11:11;;;;;;;18.45;15.38;;;14.70;99.90;;;;;;4952941;28;20031;-67
2022/11/12 12:13:53;;;;;;;18.55;15.55;;;14.30;99.90;;;;;;4937626;29;20031;-65
2022/11/12 12:16:53;;;;;;;18.98;15.32;;;13.90;99.90;;;;;;4935955;29;20046;-65
2022/11/12 12:19:44;;;;;;;15.20;13.60;;;13.60;99.90;;;;;;4952387;28;20031;-65
2022/11/12 12:22:16;;;;;;;19.95;15.68;;;13.30;99.90;;;;;;4935149;28;20039;-65
2022/11/12 12:24:48;;;;;;;18.75;14.70;;;13.00;99.90;;;;;;4949035;29;20073;-65
2022/11/12 12:27:19;;;;;;;17.67;13.52;;;12.80;99.90;;;;;;4947721;28;20186;-65
2022/11/12 12:29:48;;;;;;;;;;;12.60;99.90;;;;;;4938238;28;20392;-65
2022/11/12 12:32:48;;;;;;;18.33;14.38;;;12.50;99.90;;;;;;4950843;28;19923;-65
2022/11/12 12:35:24;;;;;;;19.67;13.40;;;12.40;99.90;;;;;;4948608;28;20047;-65
2022/11/12 12:37:56;;;;;;;15.45;12.60;;;12.30;99.90;;;;;;4951304;28;20094;-65
2022/11/12 12:40:49;;;;;;;20.60;14.88;;;12.20;99.90;;;;;;4954498;28;20039;-65
2022/11/12 12:43:43;;;;;;;20.05;14.75;;;12.10;99.90;;;;;;4952723;28;20039;-68
2022/11/12 12:46:13;;;;;;;18.08;15.10;;;12.00;99.90;;;;;;4966744;28;20028;-67
2022/11/12 12:48:45;;;;;;;19.38;14.63;;;11.90;99.90;;;;;;4954539;28;20097;-68
2022/11/12 12:51:18;;;;;;;17.95;13.52;;;12.00;99.90;;;;;;4968953;28;20150;-68
2022/11/12 12:53:51;;;;;;;20.75;15.43;;;11.90;99.90;;;;;;4935988;28;20031;-68
2022/11/12 12:56:43;;;;;;;16.95;14.07;;;11.90;99.90;;;;;;4945886;28;20474;-67
2022/11/12 12:59:19;;;;;;;19.08;14.00;;;11.80;99.90;;;;;;4946404;28;20502;-67
2022/11/12 13:01:55;;;;;;;19.30;14.73;;;11.70;99.90;;;;;;4953918;28;20058;-68
2022/11/12 13:05:00;;;;;;;18.95;14.52;;;11.70;99.90;;;;;;4956388;28;20049;-68
2022/11/12 13:07:49;;;;;;;17.35;14.15;;;11.70;99.90;;;;;;4951110;29;20043;-67
2022/11/12 13:10:40;;;;;;;18.73;13.65;;;11.70;99.90;;;;;;4952284;29;20044;-68
2022/11/12 13:13:19;;;;;;;15.88;12.95;;;11.70;99.90;;;;;;4954646;28;20102;-65
2022/11/12 13:15:53;;;;;;;17.42;14.25;;;11.60;99.90;;;;;;4955782;28;20077;-64
2022/11/12 13:18:38;;;;;;;21.65;15.38;;;11.70;99.90;;;;;;4955392;28;20445;-65
2022/11/12 13:21:25;;;;;;;19.15;13.57;;;11.70;99.90;;;;;;4941981;28;20113;-65
2022/11/12 13:24:09;;;;;;;15.55;12.35;;;11.80;99.90;;;;;;4974515;28;20079;-64